createdAt,value
2022-12-01T00:03:38.010Z,9.43
2022-12-01T00:08:58.188Z,9.70
2022-12-01T00:14:18.436Z,9.60
2022-12-01T00:19:38.490Z,8.40
2022-12-01T00:24:58.579Z,9.90
2022-12-01T00:30:18.776Z,10.13
2022-12-01T00:35:38.996Z,10.57
2022-12-01T00:40:59.148Z,10.10
2022-12-01T00:46:19.248Z,9.50
2022-12-01T00:51:39.318Z,9.37
2022-12-01T00:56:59.507Z,9.03
2022-12-01T01:02:19.595Z,8.23
2022-12-01T01:07:39.843Z,8.63
2022-12-01T01:13:00.032Z,9.70
2022-12-01T01:18:20.272Z,9.70
2022-12-01T01:23:40.461Z,8.63
2022-12-01T01:29:00.602Z,10.60
2022-12-01T01:34:20.727Z,8.93
2022-12-01T01:39:40.939Z,9.37
2022-12-01T01:45:01.020Z,8.93
2022-12-01T01:50:21.117Z,9.30
2022-12-01T01:55:41.340Z,10.17
2022-12-01T02:01:01.503Z,8.70
2022-12-01T02:06:21.541Z,10.53
2022-12-01T02:11:41.595Z,10.10
2022-12-01T02:17:01.788Z,9.63
2022-12-01T02:22:21.766Z,9.80
2022-12-01T02:27:42.114Z,10.47
2022-12-01T02:33:02.290Z,10.63
2022-12-01T02:38:22.502Z,8.93
2022-12-01T02:43:42.683Z,9.83
2022-12-01T02:49:02.869Z,10.17
2022-12-01T02:54:22.948Z,10.30
2022-12-01T02:59:43.186Z,10.57
2022-12-01T03:05:03.312Z,10.50
2022-12-01T03:10:23.482Z,11.07
2022-12-01T03:15:43.697Z,11.03
2022-12-01T03:21:03.847Z,10.90
2022-12-01T03:26:23.915Z,10.47
2022-12-01T03:31:44.132Z,10.30
2022-12-01T03:37:04.357Z,11.10
2022-12-01T03:42:24.427Z,10.50
2022-12-01T03:47:44.374Z,10.83
2022-12-01T03:53:04.641Z,10.43
2022-12-01T03:58:24.667Z,10.87
2022-12-01T04:03:44.979Z,11.00
2022-12-01T04:09:05.218Z,10.20
2022-12-01T04:14:25.363Z,10.10
2022-12-01T04:19:45.402Z,9.93
2022-12-01T04:25:05.555Z,10.50
2022-12-01T04:30:25.527Z,10.00
2022-12-01T04:35:45.745Z,11.10
2022-12-01T04:41:05.832Z,10.90
2022-12-01T04:46:26.191Z,10.37
2022-12-01T04:51:46.086Z,11.33
2022-12-01T04:57:06.172Z,10.87
2022-12-01T05:02:26.416Z,10.90
2022-12-01T05:07:46.590Z,10.30
2022-12-01T05:13:06.604Z,10.23
2022-12-01T05:18:26.803Z,10.70
2022-12-01T05:23:46.850Z,9.90
2022-12-01T05:29:06.854Z,9.43
2022-12-01T05:34:26.983Z,9.47
2022-12-01T05:39:47.454Z,10.70
2022-12-01T05:45:07.811Z,9.93
2022-12-01T05:50:27.951Z,10.47
2022-12-01T05:55:47.982Z,10.23
2022-12-01T06:01:08.102Z,10.70
2022-12-01T06:06:28.228Z,10.43
2022-12-01T06:11:52.339Z,10.13
2022-12-01T06:17:12.484Z,9.37
2022-12-01T06:22:32.605Z,10.07
2022-12-01T06:27:52.720Z,9.20
2022-12-01T06:33:12.895Z,9.90
2022-12-01T06:38:32.925Z,9.50
2022-12-01T06:43:53.151Z,10.00
2022-12-01T06:49:13.212Z,10.47
2022-12-01T06:54:33.600Z,9.87
2022-12-01T06:59:53.644Z,8.27
2022-12-01T07:05:14.415Z,10.20
2022-12-01T07:10:34.486Z,9.40
2022-12-01T07:15:54.730Z,9.53
2022-12-01T07:21:14.894Z,9.97
2022-12-01T07:26:35.070Z,10.63
2022-12-01T07:31:55.199Z,10.10
2022-12-01T07:37:15.342Z,8.80
2022-12-01T07:42:35.439Z,9.30
2022-12-01T07:47:55.699Z,9.33
2022-12-01T07:53:15.773Z,9.20
2022-12-01T07:58:36.091Z,9.70
2022-12-01T08:03:56.219Z,9.43
2022-12-01T08:09:16.413Z,9.70
2022-12-01T08:14:36.638Z,7.83
2022-12-01T08:19:56.743Z,9.10
2022-12-01T08:25:16.862Z,9.60
2022-12-01T08:30:37.131Z,9.23
2022-12-01T08:35:57.231Z,9.70
2022-12-01T08:41:17.352Z,10.83
2022-12-01T08:46:37.550Z,9.47
2022-12-01T08:51:57.734Z,9.30
2022-12-01T08:57:17.977Z,10.50
2022-12-01T09:02:38.258Z,10.23
2022-12-01T09:07:58.402Z,9.53
2022-12-01T09:13:18.499Z,9.27
2022-12-01T09:18:38.705Z,10.10
2022-12-01T09:23:58.759Z,9.73
2022-12-01T09:29:18.964Z,9.80
2022-12-01T09:34:38.990Z,10.07
2022-12-01T09:39:59.307Z,9.97
2022-12-01T09:45:19.348Z,10.23
2022-12-01T09:50:39.545Z,10.17
2022-12-01T09:56:07.161Z,10.73
2022-12-01T10:01:30.373Z,9.67
2022-12-01T10:06:50.439Z,10.30
2022-12-01T10:12:10.614Z,10.37
2022-12-01T10:17:30.738Z,10.70
2022-12-01T10:22:50.924Z,9.70
2022-12-01T10:28:10.960Z,9.77
2022-12-01T10:33:31.039Z,10.60
2022-12-01T10:38:51.129Z,9.97
2022-12-01T10:44:11.352Z,9.77
2022-12-01T10:49:31.559Z,9.70
2022-12-01T10:54:51.713Z,10.70
2022-12-01T11:00:18.152Z,9.87
2022-12-01T11:05:51.756Z,10.03
2022-12-01T11:11:11.904Z,9.50
2022-12-01T11:16:32.174Z,8.30
2022-12-01T11:21:52.270Z,10.10
2022-12-01T11:27:12.444Z,9.97
2022-12-01T11:32:32.513Z,9.77
2022-12-01T11:38:20.993Z,10.20
2022-12-01T11:43:32.876Z,9.83
2022-12-01T11:48:53.041Z,9.53
2022-12-01T11:54:13.123Z,8.60
2022-12-01T11:59:33.572Z,8.90
2022-12-01T12:04:53.392Z,9.40
2022-12-01T12:10:13.694Z,10.37
2022-12-01T12:15:34.480Z,9.57
2022-12-01T12:20:54.607Z,8.80
2022-12-01T12:26:14.706Z,10.30
2022-12-01T12:31:34.859Z,9.80
2022-12-01T12:36:54.983Z,10.00
2022-12-01T12:42:15.145Z,8.90
2022-12-01T12:47:35.194Z,9.70
2022-12-01T12:52:55.402Z,10.10
2022-12-01T12:58:15.529Z,9.90
2022-12-01T13:03:35.694Z,9.93
2022-12-01T13:08:55.913Z,10.70
2022-12-01T13:14:16.054Z,10.20
2022-12-01T13:19:36.203Z,10.27
2022-12-01T13:24:56.360Z,9.13
2022-12-01T13:30:16.568Z,10.70
2022-12-01T13:35:36.914Z,11.10
2022-12-01T13:40:56.838Z,10.73
2022-12-01T13:46:16.939Z,10.07
2022-12-01T13:51:37.068Z,10.60
2022-12-01T13:56:57.275Z,11.73
2022-12-01T14:02:17.566Z,11.53
2022-12-01T14:07:37.749Z,11.80
2022-12-01T14:12:57.818Z,11.00
2022-12-01T14:18:18.026Z,11.17
2022-12-01T14:23:39.129Z,12.13
2022-12-01T14:28:59.394Z,11.10
2022-12-01T14:34:19.622Z,12.20
2022-12-01T14:39:39.722Z,12.07
2022-12-01T14:44:59.743Z,12.70
2022-12-01T14:50:19.922Z,13.93
2022-12-01T14:55:40.111Z,12.20
2022-12-01T15:01:03.476Z,13.00
2022-12-01T15:06:23.454Z,11.87
2022-12-01T15:11:43.729Z,13.30
2022-12-01T15:17:03.962Z,12.13
2022-12-01T15:22:24.079Z,13.63
2022-12-01T15:27:44.132Z,13.03
2022-12-01T15:33:04.438Z,12.50
2022-12-01T15:38:24.520Z,12.73
2022-12-01T15:43:44.761Z,12.67
2022-12-01T15:49:04.787Z,13.00
2022-12-01T15:54:25.006Z,14.03
2022-12-01T15:59:45.070Z,13.03
2022-12-01T16:05:06.369Z,13.33
2022-12-01T16:10:26.146Z,13.47
2022-12-01T16:15:46.380Z,13.93
2022-12-01T16:21:06.427Z,14.37
2022-12-01T16:26:26.622Z,12.53
2022-12-01T16:32:12.551Z,13.60
2022-12-01T16:37:26.498Z,13.20
2022-12-01T16:42:46.659Z,13.10
2022-12-01T16:48:09.474Z,13.93
2022-12-01T16:53:29.617Z,12.97
2022-12-01T16:58:49.773Z,13.33
2022-12-01T17:04:10.042Z,12.90
2022-12-01T17:09:30.166Z,13.53
2022-12-01T17:14:50.760Z,13.80
2022-12-01T17:20:10.700Z,13.10
2022-12-01T17:25:30.922Z,13.23
2022-12-01T17:30:51.097Z,12.53
2022-12-01T17:36:11.230Z,12.90
2022-12-01T17:41:31.191Z,13.53
2022-12-01T17:46:51.445Z,13.53
2022-12-01T17:52:11.682Z,14.80
2022-12-01T17:57:31.955Z,13.73
2022-12-01T18:02:52.071Z,16.00
2022-12-01T18:08:12.419Z,15.20
2022-12-01T18:13:32.386Z,16.40
2022-12-01T18:18:52.605Z,14.93
2022-12-01T18:24:12.815Z,15.30
2022-12-01T18:29:33.139Z,15.30
2022-12-01T18:34:53.388Z,14.67
2022-12-01T18:40:13.419Z,15.30
2022-12-01T18:45:33.611Z,15.17
2022-12-01T18:50:59.089Z,16.30
2022-12-01T18:56:19.856Z,17.70
2022-12-01T19:01:40.352Z,16.47
2022-12-01T19:07:00.700Z,20.10
2022-12-01T19:12:20.894Z,19.20
2022-12-01T19:17:41.054Z,18.20
2022-12-01T19:23:01.291Z,16.70
2022-12-01T19:28:21.417Z,19.00
2022-12-01T19:33:41.762Z,17.60
2022-12-01T19:39:04.337Z,20.17
2022-12-01T19:44:25.923Z,19.40
2022-12-01T19:49:46.178Z,18.43
2022-12-01T19:55:06.210Z,20.33
2022-12-01T20:00:26.295Z,18.47
2022-12-01T20:05:46.444Z,21.50
2022-12-01T20:11:06.511Z,20.70
2022-12-01T20:16:26.657Z,22.57
2022-12-01T20:21:46.759Z,21.60
2022-12-01T20:27:06.804Z,20.17
2022-12-01T20:32:26.901Z,21.10
2022-12-01T20:37:46.875Z,23.20
2022-12-01T20:43:06.974Z,21.17
2022-12-01T20:48:27.069Z,21.17
2022-12-01T20:54:05.345Z,22.30
2022-12-01T20:59:25.672Z,23.30
2022-12-01T21:04:48.250Z,20.33
2022-12-01T21:10:08.521Z,21.20
2022-12-01T21:15:28.725Z,21.70
2022-12-01T21:20:48.760Z,20.30
2022-12-01T21:26:09.042Z,20.30
2022-12-01T21:31:29.143Z,22.37
2022-12-01T21:36:49.245Z,20.70
2022-12-01T21:42:09.339Z,21.50
2022-12-01T21:47:29.448Z,20.33
2022-12-01T21:52:49.570Z,20.90
2022-12-01T21:58:09.685Z,19.73
2022-12-01T22:03:29.864Z,20.60
2022-12-01T22:08:50.064Z,20.90
2022-12-01T22:14:10.406Z,21.37
2022-12-01T22:19:30.689Z,20.50
2022-12-01T22:24:51.132Z,21.30
2022-12-01T22:30:11.687Z,21.40
2022-12-01T22:35:31.965Z,21.07
2022-12-01T22:40:52.182Z,20.17
2022-12-01T22:46:12.220Z,22.50
2022-12-01T22:51:32.571Z,21.83
2022-12-01T22:56:52.634Z,20.60
2022-12-01T23:02:15.432Z,22.13
2022-12-01T23:07:39.614Z,22.30
2022-12-01T23:12:59.679Z,19.40
2022-12-01T23:18:19.993Z,21.27
2022-12-01T23:23:40.314Z,20.63
2022-12-01T23:29:00.572Z,21.93
2022-12-01T23:34:20.797Z,19.87
2022-12-01T23:39:41.076Z,20.70
2022-12-01T23:45:01.170Z,20.97
2022-12-01T23:50:21.406Z,21.13
2022-12-01T23:55:41.447Z,20.70
